Time;durP1;ratioP1;P1;durP2;ratioP2;P2;SDS_P1;SDS_P2;PMS_P1;PMS_P2;Temp;Humidity;BMP_temperature;BMP_pressure;BME280_temperature;BME280_humidity;BME280_pressure;Samples;Min_cycle;Max_cycle;Signal;HPM_P1;HPM_P2
2022/06/06 00:01:35;;;;;;;14.67;8.60;;;16.10;99.90;;;;;;5053275;28;20290;-64
2022/06/06 00:04:24;;;;;;;13.00;8.60;;;16.00;99.90;;;;;;5065580;28;20775;-64
2022/06/06 00:07:11;;;;;;;10.77;8.63;;;16.00;99.90;;;;;;5058897;28;20204;-64
2022/06/06 00:09:58;;;;;;;13.67;9.17;;;15.90;99.90;;;;;;5066835;28;20204;-64
2022/06/06 00:12:46;;;;;;;12.37;9.13;;;15.90;99.90;;;;;;5065310;28;20252;-64
2022/06/06 00:15:33;;;;;;;10.87;8.93;;;15.80;99.90;;;;;;5063300;28;20304;-64
2022/06/06 00:18:20;;;;;;;12.20;8.60;;;15.70;99.90;;;;;;5059629;28;20252;-64
2022/06/06 00:21:10;;;;;;;14.43;9.43;;;15.70;99.90;;;;;;5063743;28;20209;-65
2022/06/06 00:23:59;;;;;;;15.00;9.70;;;15.60;99.90;;;;;;5068168;28;20283;-64
2022/06/06 00:26:46;;;;;;;11.50;8.60;;;15.50;99.90;;;;;;5063130;28;20207;-64
2022/06/06 00:29:35;;;;;;;11.97;9.03;;;15.50;99.90;;;;;;5060302;28;20194;-64
2022/06/06 00:35:27;;;;;;;12.70;9.80;;;15.30;99.90;;;;;;5049809;28;20813;-64
2022/06/06 00:38:15;;;;;;;15.10;9.87;;;15.20;99.90;;;;;;5050417;28;20315;-64
2022/06/06 00:41:02;;;;;;;13.73;9.67;;;15.20;99.90;;;;;;5050697;28;20720;-64
2022/06/06 00:44:03;;;;;;;13.67;9.40;;;15.00;99.90;;;;;;5056271;28;20289;-64
2022/06/06 00:46:52;;;;;;;14.00;9.77;;;15.00;99.90;;;;;;5050721;28;20208;-64
2022/06/06 00:49:40;;;;;;;13.60;9.93;;;14.90;99.90;;;;;;5050766;28;20213;-64
2022/06/06 00:52:29;;;;;;;14.97;10.23;;;14.90;99.90;;;;;;5048443;28;20200;-64
2022/06/06 00:55:21;;;;;;;14.33;9.90;;;14.80;99.90;;;;;;5049759;28;20209;-64
2022/06/06 00:58:11;;;;;;;15.27;9.93;;;14.80;99.90;;;;;;5048034;28;20277;-64
2022/06/06 01:00:58;;;;;;;13.20;8.90;;;14.80;99.90;;;;;;5066773;28;20309;-64
2022/06/06 01:03:46;;;;;;;15.00;10.60;;;14.80;99.90;;;;;;5066011;28;20200;-64
2022/06/06 01:06:34;;;;;;;13.67;9.37;;;14.70;99.90;;;;;;5062438;28;20203;-64
2022/06/06 01:09:22;;;;;;;20.10;10.50;;;14.70;99.90;;;;;;5055958;28;20195;-64
2022/06/06 01:12:12;;;;;;;13.90;10.27;;;14.70;99.90;;;;;;5060799;28;20289;-64
2022/06/06 01:15:01;;;;;;;13.57;9.97;;;14.70;99.90;;;;;;5065182;28;20207;-64
2022/06/06 01:17:52;;;;;;;12.63;10.03;;;14.60;99.90;;;;;;5067857;28;20203;-64
2022/06/06 01:20:58;;;;;;;13.83;10.57;;;14.50;99.90;;;;;;5068610;28;20218;-64
2022/06/06 01:24:03;;;;;;;12.87;9.70;;;14.50;99.90;;;;;;5071602;28;20211;-64
2022/06/06 01:26:56;;;;;;;13.43;9.87;;;14.50;99.90;;;;;;5070568;28;20251;-64
2022/06/06 01:29:45;;;;;;;12.73;10.43;;;14.50;99.90;;;;;;5081075;28;20949;-64
2022/06/06 01:32:35;;;;;;;14.13;10.53;;;14.50;99.90;;;;;;5071163;28;20207;-64
2022/06/06 01:35:24;;;;;;;16.47;10.60;;;14.50;99.90;;;;;;5072315;28;20258;-64
2022/06/06 01:38:12;;;;;;;14.77;10.50;;;14.50;99.90;;;;;;5071086;28;20689;-64
2022/06/06 01:41:01;;;;;;;13.40;9.87;;;14.40;99.90;;;;;;5068350;28;20348;-64
2022/06/06 01:43:50;;;;;;;15.57;10.17;;;14.40;99.90;;;;;;5071701;28;20286;-64
2022/06/06 01:46:38;;;;;;;14.97;10.33;;;14.40;99.90;;;;;;5078009;28;20221;-64
2022/06/06 01:49:25;;;;;;;12.13;9.60;;;14.30;99.90;;;;;;5068882;28;20251;-64
2022/06/06 01:52:14;;;;;;;16.13;9.67;;;14.30;99.90;;;;;;5079749;28;20196;-64
2022/06/06 01:55:01;;;;;;;13.07;9.60;;;14.30;99.90;;;;;;5072276;28;20259;-64
2022/06/06 01:57:49;;;;;;;13.40;9.77;;;14.30;99.90;;;;;;5072940;28;20203;-64
2022/06/06 02:00:36;;;;;;;15.80;10.13;;;14.40;99.90;;;;;;5079477;28;20287;-64
2022/06/06 02:03:25;;;;;;;13.30;9.37;;;14.40;99.90;;;;;;5079259;28;20230;-64
2022/06/06 02:06:13;;;;;;;12.03;9.50;;;14.30;99.90;;;;;;5071094;28;20218;-64
2022/06/06 02:09:00;;;;;;;15.57;9.40;;;14.30;99.90;;;;;;5075454;28;20200;-64
2022/06/06 02:11:47;;;;;;;11.60;9.13;;;14.30;99.90;;;;;;5080374;28;20208;-64
2022/06/06 02:14:34;;;;;;;11.03;8.97;;;14.30;99.90;;;;;;5079175;28;20260;-65
2022/06/06 02:17:21;;;;;;;16.53;8.90;;;14.30;99.90;;;;;;5082334;28;20251;-65
2022/06/06 02:20:11;;;;;;;13.20;9.43;;;14.40;99.90;;;;;;5062227;28;20215;-64
2022/06/06 02:22:59;;;;;;;14.37;9.37;;;14.40;99.90;;;;;;5056891;28;20680;-64
2022/06/06 02:25:46;;;;;;;13.73;8.87;;;14.40;99.90;;;;;;5069511;28;20733;-65
2022/06/06 02:28:33;;;;;;;13.37;9.30;;;14.30;99.90;;;;;;5066359;28;20199;-65
2022/06/06 02:31:20;;;;;;;11.33;8.63;;;14.50;99.90;;;;;;5065699;28;20285;-64
2022/06/06 02:34:08;;;;;;;10.77;8.83;;;14.60;99.90;;;;;;5064861;28;20784;-65
2022/06/06 02:36:56;;;;;;;12.40;9.57;;;14.60;99.90;;;;;;5069834;28;20228;-64
2022/06/06 02:39:43;;;;;;;13.73;8.57;;;14.60;99.90;;;;;;5070426;28;20696;-64
2022/06/06 02:42:30;;;;;;;13.67;8.50;;;14.50;99.90;;;;;;5066172;28;20229;-65
2022/06/06 02:45:18;;;;;;;12.43;9.10;;;14.40;99.90;;;;;;5068395;28;20566;-65
2022/06/06 02:48:05;;;;;;;10.67;8.33;;;14.40;99.90;;;;;;5069771;28;20224;-64
2022/06/06 02:50:52;;;;;;;9.13;8.13;;;14.30;99.90;;;;;;5070190;28;20266;-64
2022/06/06 02:53:41;;;;;;;12.60;8.60;;;14.30;99.90;;;;;;5068782;28;20638;-64
2022/06/06 02:56:28;;;;;;;9.77;7.97;;;14.30;99.90;;;;;;5069742;28;20239;-64
2022/06/06 02:59:15;;;;;;;10.60;8.50;;;14.30;99.90;;;;;;5064757;28;20228;-64
2022/06/06 03:02:03;;;;;;;11.13;8.10;;;14.10;99.90;;;;;;5065084;28;20574;-64
2022/06/06 03:04:50;;;;;;;13.03;9.00;;;14.20;99.90;;;;;;5070097;28;20642;-64
2022/06/06 03:07:41;;;;;;;12.27;8.30;;;14.20;99.90;;;;;;5069174;28;20268;-64
2022/06/06 03:10:33;;;;;;;11.30;8.50;;;14.40;99.90;;;;;;5068591;28;20620;-64
2022/06/06 03:13:27;;;;;;;11.93;8.60;;;14.30;99.90;;;;;;5065789;28;20260;-65
2022/06/06 03:23:11;;;;;;;10.40;8.43;;;14.30;99.90;;;;;;5068689;28;20196;-64
2022/06/06 03:26:03;;;;;;;12.37;8.57;;;14.30;99.90;;;;;;5063783;28;20286;-64
2022/06/06 03:28:59;;;;;;;12.03;8.73;;;14.30;99.90;;;;;;5068588;28;20199;-65
2022/06/06 03:31:49;;;;;;;18.30;9.53;;;14.30;99.90;;;;;;5068383;28;20600;-65
2022/06/06 03:34:39;;;;;;;11.10;8.67;;;14.40;99.90;;;;;;5067840;28;20196;-65
2022/06/06 03:37:28;;;;;;;11.57;9.30;;;14.40;99.90;;;;;;5068565;28;20199;-64
2022/06/06 03:40:19;;;;;;;10.00;8.10;;;14.40;99.90;;;;;;5064856;28;20223;-65
2022/06/06 03:43:14;;;;;;;11.10;8.77;;;14.50;99.90;;;;;;5068029;28;20226;-65
2022/06/06 03:46:05;;;;;;;11.70;9.50;;;14.60;99.90;;;;;;5058594;28;20201;-65
2022/06/06 03:48:55;;;;;;;11.73;9.20;;;14.70;99.90;;;;;;5064243;28;20880;-65
2022/06/06 03:51:46;;;;;;;13.13;9.27;;;14.90;99.90;;;;;;5049828;28;20211;-65
2022/06/06 03:54:40;;;;;;;10.93;9.40;;;15.00;99.90;;;;;;5069086;28;20212;-65
2022/06/06 03:57:27;;;;;;;12.83;9.27;;;15.00;99.90;;;;;;5050609;28;20212;-65
2022/06/06 04:00:16;;;;;;;11.13;8.63;;;15.00;99.90;;;;;;5063254;28;20378;-65
2022/06/06 04:03:05;;;;;;;15.93;8.53;;;15.10;99.90;;;;;;5063403;28;20252;-65
2022/06/06 04:05:53;;;;;;;10.57;8.50;;;15.20;99.90;;;;;;5056617;28;20629;-65
2022/06/06 04:08:40;;;;;;;12.23;8.67;;;15.40;99.90;;;;;;5063000;28;20204;-65
2022/06/06 04:11:39;;;;;;;12.63;8.90;;;15.50;99.90;;;;;;5066270;28;20196;-65
2022/06/06 04:14:33;;;;;;;12.13;8.40;;;15.50;99.90;;;;;;5066029;28;20199;-65
2022/06/06 04:17:27;;;;;;;10.73;8.50;;;15.60;99.90;;;;;;5067778;28;20224;-65
2022/06/06 04:20:25;;;;;;;12.77;8.27;;;15.70;99.90;;;;;;5064510;28;20217;-65
2022/06/06 04:23:30;;;;;;;9.67;8.20;;;15.80;99.90;;;;;;5064830;28;20206;-65
2022/06/06 04:26:20;;;;;;;10.53;7.87;;;15.90;99.90;;;;;;5067218;28;20250;-64
2022/06/06 04:29:12;;;;;;;16.17;7.70;;;16.00;99.90;;;;;;5063714;28;20196;-65
2022/06/06 04:32:02;;;;;;;12.80;7.90;;;16.00;99.90;;;;;;5067319;28;20254;-65
2022/06/06 04:34:53;;;;;;;11.47;7.97;;;16.10;99.90;;;;;;5067795;28;20207;-65
2022/06/06 04:37:42;;;;;;;10.43;7.90;;;16.40;99.90;;;;;;5066997;28;20310;-65
2022/06/06 04:40:36;;;;;;;9.67;7.93;;;16.60;99.90;;;;;;5063814;28;20287;-65
2022/06/06 04:43:26;;;;;;;9.17;7.07;;;16.90;99.90;;;;;;5063039;28;20218;-65
2022/06/06 04:46:16;;;;;;;12.50;7.57;;;17.10;99.90;;;;;;5064002;28;20663;-65
2022/06/06 04:49:03;;;;;;;10.63;7.30;;;17.20;99.90;;;;;;5067087;28;20200;-66
2022/06/06 04:51:51;;;;;;;9.83;7.33;;;17.30;99.90;;;;;;5069543;28;20287;-65
2022/06/06 04:54:42;;;;;;;9.23;6.77;;;17.40;99.90;;;;;;5053539;28;20242;-65
2022/06/06 04:57:29;;;;;;;11.47;7.20;;;17.40;99.90;;;;;;5061714;28;20579;-65
2022/06/06 05:00:17;;;;;;;8.23;7.03;;;17.60;99.90;;;;;;5050380;28;20290;-65
2022/06/06 05:03:04;;;;;;;8.47;6.63;;;17.70;99.90;;;;;;5065568;28;20728;-65
2022/06/06 05:05:58;;;;;;;9.90;6.73;;;17.90;99.90;;;;;;5055230;28;20292;-65
2022/06/06 05:08:56;;;;;;;7.60;6.30;;;17.90;99.90;;;;;;5065357;28;20200;-64
2022/06/06 05:11:48;;;;;;;9.33;6.70;;;18.00;99.90;;;;;;5061569;28;20514;-65
2022/06/06 05:14:45;;;;;;;9.43;6.57;;;18.10;99.90;;;;;;5068563;28;20200;-65
2022/06/06 05:17:50;;;;;;;12.07;6.80;;;18.10;99.90;;;;;;5047856;28;20693;-65
2022/06/06 05:21:01;;;;;;;7.73;6.80;;;18.10;99.90;;;;;;5054575;28;20299;-65
2022/06/06 05:24:00;;;;;;;8.60;6.77;;;18.00;99.90;;;;;;5065875;28;20250;-65
2022/06/06 05:27:08;;;;;;;10.20;7.30;;;17.90;99.90;;;;;;5069299;28;20277;-65
2022/06/06 05:30:07;;;;;;;9.30;6.70;;;17.90;99.90;;;;;;5070750;28;20646;-65
2022/06/06 05:33:06;;;;;;;7.07;6.37;;;18.00;99.90;;;;;;5062799;28;20284;-65
2022/06/06 05:36:18;;;;;;;9.27;7.47;;;18.10;99.90;;;;;;5066687;28;20209;-65
2022/06/06 05:39:17;;;;;;;8.90;6.23;;;18.10;99.90;;;;;;5064883;28;20360;-65
2022/06/06 05:42:11;;;;;;;8.93;7.00;;;18.00;99.90;;;;;;5065043;28;20198;-65
2022/06/06 05:45:07;;;;;;;7.73;6.47;;;17.90;99.90;;;;;;5069211;28;20238;-65
2022/06/06 05:47:59;;;;;;;7.57;6.60;;;17.90;99.90;;;;;;5062667;28;20233;-65
2022/06/06 05:50:55;;;;;;;10.93;6.90;;;17.90;99.90;;;;;;5062482;28;21952;-65
2022/06/06 05:53:54;;;;;;;8.97;6.43;;;18.00;99.90;;;;;;5069897;28;20337;-65
2022/06/06 05:57:20;;;;;;;7.83;6.40;;;18.00;99.90;;;;;;5067013;28;20672;-65
2022/06/06 06:00:18;;;;;;;8.73;6.67;;;18.00;99.90;;;;;;5056212;28;20257;-65
2022/06/06 06:03:17;;;;;;;7.70;6.13;;;18.10;99.90;;;;;;5085303;28;20203;-65
2022/06/06 06:06:14;;;;;;;9.87;6.37;;;18.20;99.90;;;;;;5085241;28;20568;-65
2022/06/06 06:09:22;;;;;;;9.43;6.50;;;18.30;99.90;;;;;;5090390;28;20197;-65
2022/06/06 06:12:17;;;;;;;8.83;6.40;;;18.20;99.90;;;;;;5089024;28;20247;-65
2022/06/06 06:15:10;;;;;;;9.40;6.17;;;18.40;99.90;;;;;;5084363;28;20788;-65
2022/06/06 06:17:58;;;;;;;8.97;6.43;;;18.50;99.90;;;;;;5089316;28;20195;-65
2022/06/06 06:20:48;;;;;;;7.07;6.00;;;18.70;99.90;;;;;;5091582;28;20692;-65
2022/06/06 06:23:37;;;;;;;7.57;6.33;;;18.90;99.90;;;;;;5091103;28;20286;-65
2022/06/06 06:26:24;;;;;;;9.07;6.00;;;19.10;99.90;;;;;;5091340;28;20660;-65
2022/06/06 06:29:11;;;;;;;8.00;6.10;;;19.40;99.90;;;;;;5087213;28;20285;-65
2022/06/06 06:32:13;;;;;;;7.90;5.70;;;19.60;99.90;;;;;;5091626;28;20203;-65
2022/06/06 06:35:09;;;;;;;9.83;6.20;;;19.80;99.80;;;;;;5091248;28;20213;-65
2022/06/06 06:38:08;;;;;;;8.43;5.57;;;20.10;96.50;;;;;;5091282;28;20215;-65
2022/06/06 06:41:00;;;;;;;6.53;5.87;;;20.20;92.70;;;;;;5091440;28;20284;-65
2022/06/06 06:43:58;;;;;;;6.33;5.40;;;20.30;90.60;;;;;;5089137;28;20678;-65
2022/06/06 06:46:47;;;;;;;8.07;5.87;;;20.40;92.20;;;;;;5090256;28;20582;-65
2022/06/06 06:49:37;;;;;;;7.00;5.47;;;20.60;89.40;;;;;;5090406;28;20204;-65
2022/06/06 06:52:32;;;;;;;7.90;6.27;;;20.60;94.20;;;;;;5071067;28;20598;-65
2022/06/06 06:55:24;;;;;;;7.17;5.60;;;20.70;89.00;;;;;;5070621;28;20660;-65
2022/06/06 06:58:36;;;;;;;9.47;5.90;;;20.60;93.00;;;;;;5070305;28;20667;-65
2022/06/06 07:01:30;;;;;;;6.20;5.60;;;20.60;93.50;;;;;;5070266;28;20278;-65
2022/06/06 07:10:38;;;;;;;7.30;5.70;;;20.10;99.90;;;;;;5069330;28;20196;-65
2022/06/06 07:13:33;;;;;;;7.73;5.80;;;19.90;95.70;;;;;;5070871;28;20698;-65
2022/06/06 07:16:21;;;;;;;5.97;5.37;;;20.00;98.40;;;;;;5076023;28;20204;-65
2022/06/06 07:19:10;;;;;;;6.37;5.73;;;20.00;92.50;;;;;;5090803;28;20200;-65
2022/06/06 07:21:57;;;;;;;10.23;5.83;;;20.00;98.30;;;;;;5090573;28;20295;-65
2022/06/06 07:24:45;;;;;;;7.97;6.00;;;19.80;99.90;;;;;;5090258;28;20196;-65
2022/06/06 07:27:33;;;;;;;8.47;6.03;;;19.80;99.90;;;;;;5087131;28;20281;-65
2022/06/06 07:30:21;;;;;;;11.53;6.47;;;19.80;99.90;;;;;;5087350;28;20281;-65
2022/06/06 07:33:25;;;;;;;7.17;6.20;;;20.00;99.90;;;;;;5083887;28;20208;-65
2022/06/06 07:36:17;;;;;;;6.97;5.93;;;20.30;99.90;;;;;;5073397;28;20221;-65
2022/06/06 07:39:09;;;;;;;8.43;5.60;;;20.80;98.30;;;;;;5086630;28;20882;-65
2022/06/06 07:42:05;;;;;;;5.80;5.20;;;21.10;91.50;;;;;;5087602;28;20303;-65
2022/06/06 07:45:02;;;;;;;7.23;5.50;;;21.10;90.00;;;;;;5088206;28;20223;-65
2022/06/06 07:48:11;;;;;;;7.93;5.20;;;21.20;84.70;;;;;;5085827;28;20196;-65
2022/06/06 07:51:01;;;;;;;11.47;5.47;;;21.60;91.50;;;;;;5083135;28;20722;-65
2022/06/06 07:53:51;;;;;;;8.03;5.33;;;21.80;84.20;;;;;;5087589;28;20231;-65
2022/06/06 07:56:48;;;;;;;6.70;5.13;;;22.30;83.00;;;;;;5086633;28;20299;-65
2022/06/06 07:59:42;;;;;;;8.20;5.20;;;22.60;77.30;;;;;;5086810;28;20288;-65
2022/06/06 08:02:45;;;;;;;6.20;4.23;;;22.30;71.00;;;;;;5086751;28;20202;-65
2022/06/06 08:06:11;;;;;;;5.10;4.60;;;22.80;72.80;;;;;;5083501;28;20275;-65
2022/06/06 08:09:20;;;;;;;6.03;4.87;;;23.10;71.90;;;;;;5080801;28;20196;-65
2022/06/06 08:12:27;;;;;;;7.20;4.63;;;23.50;68.90;;;;;;5086838;28;20200;-66
2022/06/06 08:15:19;;;;;;;5.97;4.90;;;23.80;67.30;;;;;;5081400;28;20227;-65
2022/06/06 08:18:22;;;;;;;5.83;5.03;;;23.80;65.10;;;;;;5086581;28;20230;-66
2022/06/06 08:21:14;;;;;;;8.10;5.23;;;23.30;66.60;;;;;;5080674;28;20521;-65
2022/06/06 08:24:08;;;;;;;6.83;4.93;;;23.60;73.90;;;;;;5087208;28;20568;-65
2022/06/06 08:26:56;;;;;;;6.57;5.03;;;24.00;74.30;;;;;;5084762;28;20200;-66
2022/06/06 08:29:44;;;;;;;6.55;5.00;;;23.80;74.50;;;;;;5082893;28;20579;-65
2022/06/06 08:32:31;;;;;;;9.70;4.88;;;23.80;79.70;;;;;;5092787;28;20206;-66
2022/06/06 08:35:19;;;;;;;7.10;5.50;;;24.30;77.10;;;;;;5084669;28;20666;-65
2022/06/06 08:38:17;;;;;;;6.82;5.30;;;24.40;72.00;;;;;;5076868;28;20228;-65
2022/06/06 08:41:37;;;;;;;7.28;4.95;;;24.10;70.80;;;;;;5090523;28;20299;-65
2022/06/06 08:44:28;;;;;;;6.20;4.72;;;23.90;67.00;;;;;;5090830;28;20288;-65
2022/06/06 08:47:20;;;;;;;7.50;5.70;;;23.60;71.60;;;;;;5085974;28;20214;-65
2022/06/06 08:50:47;;;;;;;6.43;5.10;;;23.40;67.70;;;;;;5088730;28;20196;-65
2022/06/06 08:54:07;;;;;;;6.07;4.90;;;24.00;72.50;;;;;;5087724;28;20330;-65
2022/06/06 08:57:07;;;;;;;6.70;5.33;;;24.90;69.40;;;;;;5082611;28;20657;-65
2022/06/06 09:00:18;;;;;;;5.70;5.20;;;24.50;71.50;;;;;;5085833;28;20706;-65
2022/06/06 09:03:38;;;;;;;9.23;6.03;;;24.50;71.80;;;;;;5081982;28;20334;-65
2022/06/06 09:06:45;;;;;;;7.53;5.68;;;24.60;72.30;;;;;;5089351;28;20214;-65
2022/06/06 09:10:14;;;;;;;6.30;4.78;;;24.60;69.50;;;;;;5086079;28;20293;-65
2022/06/06 09:13:34;;;;;;;6.45;5.50;;;24.60;67.90;;;;;;5089082;28;20223;-65
2022/06/06 09:16:53;;;;;;;10.88;5.22;;;23.90;70.90;;;;;;5045724;28;20619;-65
2022/06/06 09:20:14;;;;;;;7.53;5.40;;;24.40;72.50;;;;;;5084887;28;20211;-65
2022/06/06 09:23:24;;;;;;;6.18;5.35;;;24.20;67.70;;;;;;5095728;28;20210;-66
2022/06/06 09:26:23;;;;;;;6.38;5.57;;;24.40;65.50;;;;;;5085055;28;20285;-65
2022/06/06 09:29:59;;;;;;;7.22;5.60;;;24.60;67.30;;;;;;5082405;28;20694;-65
2022/06/06 09:33:15;;;;;;;6.25;5.30;;;24.30;72.60;;;;;;5092107;28;20675;-65
2022/06/06 09:36:26;;;;;;;6.18;5.60;;;24.80;66.50;;;;;;5097215;28;20274;-65
2022/06/06 09:39:32;;;;;;;11.18;5.85;;;24.90;66.40;;;;;;5097722;28;20270;-65
2022/06/06 09:42:35;;;;;;;6.65;5.93;;;24.90;68.50;;;;;;5088642;28;20706;-65
2022/06/06 09:45:30;;;;;;;10.10;5.93;;;24.70;68.80;;;;;;5092294;28;20260;-65
2022/06/06 09:48:47;;;;;;;10.70;6.07;;;24.80;67.60;;;;;;5086768;28;20288;-65
2022/06/06 09:52:00;;;;;;;6.15;5.55;;;24.90;69.70;;;;;;5092259;28;20336;-65
2022/06/06 10:01:48;;;;;;;9.65;6.15;;;24.60;72.40;;;;;;5090364;28;20226;-65
2022/06/06 10:05:20;;;;;;;7.28;5.68;;;24.40;69.80;;;;;;5088200;28;20195;-65
2022/06/06 10:08:34;;;;;;;9.98;6.30;;;24.90;71.50;;;;;;5085205;28;20195;-65
2022/06/06 10:12:04;;;;;;;7.55;5.95;;;25.50;80.00;;;;;;5092358;28;20648;-65
2022/06/06 10:15:03;;;;;;;6.80;6.10;;;27.00;63.90;;;;;;5031053;28;20237;-65
2022/06/06 10:18:00;;;;;;;7.35;5.72;;;26.90;68.40;;;;;;5087465;28;20222;-65
2022/06/06 10:20:55;;;;;;;6.32;5.65;;;26.10;60.40;;;;;;5091506;28;20214;-65
2022/06/06 10:23:50;;;;;;;9.55;5.88;;;26.60;65.00;;;;;;5090767;28;20330;-66
2022/06/06 10:26:46;;;;;;;11.65;5.50;;;27.40;66.50;;;;;;5094080;28;20257;-65
2022/06/06 10:30:12;;;;;;;6.55;5.63;;;27.90;59.20;;;;;;5092265;28;20251;-65
2022/06/06 10:33:20;;;;;;;6.28;5.68;;;27.80;62.20;;;;;;5090442;28;20337;-65
2022/06/06 10:36:21;;;;;;;7.07;5.80;;;28.20;58.80;;;;;;5089748;28;20199;-65
2022/06/06 10:39:21;;;;;;;8.73;5.88;;;28.40;58.90;;;;;;5092522;28;20725;-65
2022/06/06 10:42:22;;;;;;;12.82;5.88;;;28.00;59.20;;;;;;5086235;28;20334;-66
2022/06/06 10:45:25;;;;;;;9.07;6.03;;;28.00;64.00;;;;;;5080743;28;20216;-65
2022/06/06 10:48:27;;;;;;;10.85;5.78;;;27.50;61.90;;;;;;5085706;28;20290;-65
2022/06/06 10:51:41;;;;;;;7.50;5.60;;;27.20;64.20;;;;;;5090452;28;20211;-65
2022/06/06 10:54:44;;;;;;;8.85;6.00;;;28.50;60.50;;;;;;5091853;28;20682;-65
2022/06/06 10:58:20;;;;;;;7.50;6.45;;;27.90;59.40;;;;;;5090102;28;20207;-65
2022/06/06 11:01:30;;;;;;;10.60;6.35;;;27.80;59.10;;;;;;5086306;28;20599;-65
2022/06/06 11:04:46;;;;;;;9.57;6.03;;;26.90;61.00;;;;;;5061525;28;20232;-65
2022/06/06 11:08:02;;;;;;;10.32;5.78;;;27.30;65.70;;;;;;5086764;28;20633;-65
2022/06/06 11:11:18;;;;;;;9.43;6.13;;;27.90;61.80;;;;;;5081115;28;20370;-65
2022/06/06 11:14:07;;;;;;;7.32;5.80;;;28.10;58.80;;;;;;5086937;28;21236;-65
2022/06/06 11:17:25;;;;;;;6.78;5.78;;;27.70;58.00;;;;;;5089319;28;20209;-65
2022/06/06 11:20:54;;;;;;;7.57;5.47;;;28.10;57.80;;;;;;5091263;28;20593;-65
2022/06/06 11:23:44;;;;;;;7.40;6.00;;;26.90;59.10;;;;;;5087421;28;20255;-65
2022/06/06 11:27:06;;;;;;;15.73;6.25;;;26.50;60.60;;;;;;5089221;28;20276;-65
2022/06/06 11:30:16;;;;;;;9.05;5.72;;;26.90;64.40;;;;;;5089981;28;20236;-65
2022/06/06 11:33:28;;;;;;;9.52;6.00;;;26.60;64.10;;;;;;5091380;28;20196;-65
2022/06/06 11:36:27;;;;;;;7.57;5.68;;;26.00;62.50;;;;;;5077485;28;20362;-65
2022/06/06 11:39:52;;;;;;;9.32;5.95;;;26.00;62.50;;;;;;5084652;28;20273;-65
2022/06/06 11:42:55;;;;;;;8.30;6.00;;;26.50;59.70;;;;;;5079471;28;20690;-65
2022/06/06 11:46:28;;;;;;;8.55;5.28;;;27.00;59.60;;;;;;5082231;28;20272;-65
2022/06/06 11:49:32;;;;;;;7.47;5.60;;;27.20;57.20;;;;;;5076852;28;20561;-65
2022/06/06 11:52:50;;;;;;;7.75;5.40;;;27.30;59.70;;;;;;5080175;28;20240;-65
2022/06/06 11:55:49;;;;;;;9.88;5.60;;;26.80;58.40;;;;;;5086665;28;21041;-66
2022/06/06 11:59:03;;;;;;;6.47;5.40;;;27.90;62.20;;;;;;5087072;28;20619;-65
2022/06/06 12:02:15;;;;;;;6.07;5.45;;;27.50;58.50;;;;;;5088250;28;20307;-65
2022/06/06 12:05:38;;;;;;;8.65;5.03;;;27.40;59.10;;;;;;5093896;28;20582;-65
2022/06/06 12:08:38;;;;;;;8.75;5.20;;;27.40;58.60;;;;;;5087209;28;20206;-66
2022/06/06 12:11:56;;;;;;;8.07;5.28;;;27.60;57.90;;;;;;5091991;28;20192;-66
2022/06/06 12:15:28;;;;;;;5.88;5.28;;;27.50;59.80;;;;;;5062401;28;21067;-65
2022/06/06 12:18:23;;;;;;;5.95;5.32;;;28.10;58.00;;;;;;5036725;28;20207;-65
2022/06/06 12:21:23;;;;;;;6.60;4.60;;;28.30;58.40;;;;;;5064870;28;21006;-65
2022/06/06 12:24:38;;;;;;;7.38;4.95;;;28.80;56.30;;;;;;5063858;28;20302;-65
2022/06/06 12:27:31;;;;;;;7.05;4.80;;;28.60;55.30;;;;;;5049198;28;20212;-65
2022/06/06 12:30:33;;;;;;;6.85;4.93;;;27.80;55.50;;;;;;5070384;28;20897;-65
2022/06/06 12:33:22;;;;;;;8.15;4.50;;;27.90;56.50;;;;;;5070847;28;20234;-65
2022/06/06 12:36:14;;;;;;;6.55;4.80;;;28.60;54.20;;;;;;5068477;28;20296;-65
2022/06/06 12:39:03;;;;;;;9.05;4.90;;;28.50;53.90;;;;;;5066176;28;20265;-65
2022/06/06 12:41:58;;;;;;;8.30;5.28;;;28.50;56.20;;;;;;5065716;28;20332;-65
2022/06/06 12:45:02;;;;;;;6.28;4.95;;;28.30;55.00;;;;;;5068472;28;20545;-65
2022/06/06 12:47:59;;;;;;;6.57;4.30;;;28.50;56.90;;;;;;5061827;28;20211;-65
2022/06/06 12:50:51;;;;;;;11.70;5.50;;;27.70;56.30;;;;;;5068343;28;20656;-66
2022/06/06 12:54:00;;;;;;;6.05;5.35;;;28.50;56.90;;;;;;5068341;28;20200;-65
2022/06/06 12:56:54;;;;;;;7.22;5.20;;;27.80;54.40;;;;;;5062848;28;20738;-65
2022/06/06 12:59:48;;;;;;;16.00;5.38;;;27.30;54.90;;;;;;5062885;28;20627;-65
2022/06/06 13:02:52;;;;;;;5.57;5.03;;;28.40;53.40;;;;;;5067720;28;20208;-66
2022/06/06 13:05:42;;;;;;;6.55;4.68;;;28.40;54.60;;;;;;5061500;28;20369;-65
2022/06/06 13:08:51;;;;;;;8.70;5.20;;;28.00;55.50;;;;;;5073158;28;20272;-66
2022/06/06 13:11:49;;;;;;;8.85;4.97;;;28.10;54.40;;;;;;5071380;28;20212;-65
2022/06/06 13:14:55;;;;;;;5.85;4.82;;;28.40;55.80;;;;;;5071752;28;20370;-65
2022/06/06 13:17:51;;;;;;;8.63;4.90;;;28.60;51.80;;;;;;5062332;28;20209;-65
2022/06/06 13:20:41;;;;;;;7.45;5.50;;;27.30;53.30;;;;;;5068875;28;20267;-65
2022/06/06 13:23:46;;;;;;;5.45;4.95;;;27.50;53.10;;;;;;5061056;28;20216;-65
2022/06/06 13:26:40;;;;;;;13.13;5.22;;;27.10;54.90;;;;;;5073144;28;20318;-65
2022/06/06 13:29:29;;;;;;;8.82;5.30;;;26.60;56.80;;;;;;5068567;28;20796;-65
2022/06/06 13:32:33;;;;;;;12.05;5.40;;;26.80;56.50;;;;;;5069347;28;20218;-64
2022/06/06 13:35:21;;;;;;;8.40;4.93;;;26.70;58.60;;;;;;5066632;28;20351;-64
2022/06/06 13:38:20;;;;;;;6.97;5.43;;;26.40;55.20;;;;;;5066997;28;20255;-65
2022/06/06 13:41:14;;;;;;;6.97;6.00;;;26.10;58.30;;;;;;5064384;28;20199;-65
2022/06/06 13:44:03;;;;;;;6.82;5.25;;;26.20;63.40;;;;;;5062720;28;20197;-65
2022/06/06 13:46:55;;;;;;;12.13;5.13;;;25.90;60.90;;;;;;5068724;28;20220;-65
2022/06/06 13:50:01;;;;;;;5.97;5.03;;;26.00;58.60;;;;;;5057864;28;20204;-64
2022/06/06 13:52:57;;;;;;;6.10;5.35;;;25.70;59.40;;;;;;5066889;28;20576;-65
2022/06/06 13:55:44;;;;;;;8.70;5.95;;;25.50;58.20;;;;;;5070301;28;20211;-65
2022/06/06 13:58:39;;;;;;;8.25;5.95;;;25.10;61.20;;;;;;5080464;28;20276;-65
2022/06/06 14:01:37;;;;;;;8.13;5.70;;;24.90;62.90;;;;;;5073268;28;20292;-64
2022/06/06 14:04:33;;;;;;;8.93;5.72;;;24.80;70.50;;;;;;5080018;28;20299;-65
2022/06/06 14:07:31;;;;;;;13.40;5.78;;;25.00;80.00;;;;;;5066974;28;20244;-65
2022/06/06 14:10:19;;;;;;;13.70;6.00;;;24.50;81.70;;;;;;5067710;28;20606;-64
2022/06/06 14:13:09;;;;;;;11.35;5.70;;;24.60;79.00;;;;;;5067072;28;20228;-64
2022/06/06 14:15:57;;;;;;;9.90;5.88;;;24.60;79.40;;;;;;5065032;28;20215;-64
2022/06/06 14:18:44;;;;;;;15.27;5.90;;;24.40;76.70;;;;;;5057848;28;20663;-64
2022/06/06 14:21:32;;;;;;;6.63;5.93;;;24.00;80.30;;;;;;5066835;28;20196;-64
2022/06/06 14:24:21;;;;;;;10.15;5.95;;;23.80;84.70;;;;;;5066497;28;20253;-64
2022/06/06 14:27:10;;;;;;;7.10;6.40;;;23.60;86.10;;;;;;5067672;28;20335;-64
2022/06/06 14:29:58;;;;;;;8.75;5.85;;;23.40;84.80;;;;;;5065182;28;20315;-64
2022/06/06 14:32:54;;;;;;;9.32;6.35;;;23.00;87.50;;;;;;5063175;28;20698;-64
2022/06/06 14:35:42;;;;;;;14.07;6.60;;;22.80;94.40;;;;;;5065989;28;20234;-65
2022/06/06 14:38:30;;;;;;;11.80;6.80;;;22.60;99.00;;;;;;5062224;28;20216;-64
2022/06/06 14:41:19;;;;;;;9.87;6.50;;;22.40;96.00;;;;;;5067742;28;20209;-64
2022/06/06 14:44:06;;;;;;;8.80;7.03;;;22.60;94.70;;;;;;5066741;28;20216;-64
2022/06/06 14:46:55;;;;;;;9.70;7.30;;;22.50;94.50;;;;;;5065974;28;20210;-64
2022/06/06 14:49:44;;;;;;;12.03;7.63;;;22.50;90.70;;;;;;5068564;28;20572;-64
2022/06/06 14:52:31;;;;;;;9.77;8.03;;;22.50;90.80;;;;;;5068219;28;20701;-64
2022/06/06 14:55:19;;;;;;;8.37;7.47;;;22.30;92.80;;;;;;5062179;28;20208;-64
2022/06/06 14:58:09;;;;;;;9.33;6.80;;;22.30;95.20;;;;;;5062729;28;20276;-64
2022/06/06 15:00:57;;;;;;;9.57;7.00;;;22.00;99.90;;;;;;5053706;28;20268;-64
2022/06/06 15:03:45;;;;;;;8.57;4.97;;;21.80;99.90;;;;;;5060985;28;20220;-63
2022/06/06 15:06:46;;;;;;;7.60;5.57;;;21.60;99.90;;;;;;5063129;28;20290;-64
2022/06/06 15:09:38;;;;;;;6.53;5.17;;;21.50;99.90;;;;;;5056934;28;20698;-64
2022/06/06 15:12:26;;;;;;;12.80;5.43;;;21.40;99.90;;;;;;5050506;28;20283;-64
2022/06/06 15:15:15;;;;;;;9.90;4.90;;;21.30;99.90;;;;;;5051115;28;20216;-64
2022/06/06 15:18:02;;;;;;;9.67;4.30;;;21.30;99.90;;;;;;5048574;28;20232;-64
2022/06/06 15:20:52;;;;;;;8.03;4.20;;;21.20;99.90;;;;;;5050954;28;20300;-64
2022/06/06 15:23:41;;;;;;;7.00;4.60;;;21.10;99.90;;;;;;5049572;28;20231;-64
2022/06/06 15:26:31;;;;;;;5.07;4.10;;;21.20;99.90;;;;;;5064014;28;20208;-64
2022/06/06 15:29:22;;;;;;;16.90;4.07;;;21.10;99.90;;;;;;5052120;28;20327;-64
2022/06/06 15:32:13;;;;;;;7.13;3.90;;;21.00;99.90;;;;;;5050734;28;20209;-64
2022/06/06 15:35:05;;;;;;;6.10;4.10;;;21.00;99.90;;;;;;5047941;28;20211;-64
2022/06/06 15:37:59;;;;;;;9.27;4.00;;;20.90;99.90;;;;;;5056638;28;20307;-64